createdAt,value
2023-05-19T00:01:17.802Z,5.20
2023-05-19T00:03:57.549Z,3.75
2023-05-19T00:06:27.652Z,4.72
2023-05-19T00:09:00.164Z,4.47
2023-05-19T00:11:28.308Z,4.68
2023-05-19T00:13:56.970Z,5.70
2023-05-19T00:18:51.856Z,3.47
2023-05-19T00:21:19.465Z,4.68
2023-05-19T00:23:46.324Z,5.05
2023-05-19T00:26:13.075Z,5.55
2023-05-19T00:28:39.938Z,4.88
2023-05-19T00:31:07.016Z,4.63
2023-05-19T00:33:34.021Z,5.35
2023-05-19T00:36:03.452Z,5.07
2023-05-19T00:38:34.843Z,7.45
2023-05-19T00:41:05.704Z,7.22
2023-05-19T00:43:34.408Z,7.15
2023-05-19T00:46:01.116Z,4.95
2023-05-19T00:48:28.074Z,4.82
2023-05-19T00:51:01.961Z,5.43
2023-05-19T00:53:29.510Z,5.93
2023-05-19T00:55:56.541Z,4.93
2023-05-19T00:58:25.671Z,7.10
2023-05-19T01:00:53.010Z,5.32
2023-05-19T01:03:20.760Z,5.40
2023-05-19T01:05:53.841Z,5.70
2023-05-19T01:08:20.641Z,6.78
2023-05-19T01:10:47.301Z,8.05
2023-05-19T01:13:14.417Z,6.40
2023-05-19T01:16:02.917Z,7.90
2023-05-19T01:18:42.612Z,4.72
2023-05-19T01:21:31.468Z,5.50
2023-05-19T01:24:14.349Z,5.70
2023-05-19T01:26:56.664Z,6.18
2023-05-19T01:30:17.072Z,6.32
2023-05-19T01:32:45.576Z,5.18
2023-05-19T01:35:15.652Z,7.38
2023-05-19T01:37:42.928Z,6.60
2023-05-19T01:40:10.505Z,5.18
2023-05-19T01:42:40.534Z,5.72
2023-05-19T01:47:55.816Z,5.75
2023-05-19T01:50:22.966Z,5.85
2023-05-19T01:52:50.257Z,7.72
2023-05-19T01:55:17.061Z,6.30
2023-05-19T01:58:19.619Z,6.60
2023-05-19T02:01:21.243Z,6.60
2023-05-19T02:04:09.574Z,7.28
2023-05-19T02:06:51.351Z,5.75
2023-05-19T02:09:39.768Z,5.45
2023-05-19T02:12:25.084Z,6.45
2023-05-19T02:15:05.565Z,5.93
2023-05-19T02:17:36.291Z,7.53
2023-05-19T02:20:04.926Z,8.40
2023-05-19T02:22:31.799Z,6.07
2023-05-19T02:24:58.514Z,6.85
2023-05-19T02:27:25.089Z,6.50
2023-05-19T02:29:52.733Z,8.88
2023-05-19T02:32:21.086Z,8.07
2023-05-19T02:34:47.989Z,8.70
2023-05-19T02:37:15.790Z,8.18
2023-05-19T02:39:44.393Z,7.53
2023-05-19T02:42:12.480Z,8.25
2023-05-19T02:44:39.193Z,8.57
2023-05-19T02:47:05.926Z,9.88
2023-05-19T02:49:36.103Z,8.20
2023-05-19T02:52:03.795Z,7.75
2023-05-19T02:54:31.534Z,7.03
2023-05-19T02:56:58.562Z,8.77
2023-05-19T02:59:25.800Z,8.73
2023-05-19T03:01:57.524Z,7.40
2023-05-19T03:04:24.130Z,8.65
2023-05-19T03:06:50.868Z,8.35
2023-05-19T03:09:17.516Z,7.43
2023-05-19T03:11:44.100Z,7.32
2023-05-19T03:14:10.784Z,6.65
2023-05-19T03:16:41.163Z,6.10
2023-05-19T03:19:09.296Z,6.68
2023-05-19T03:21:36.187Z,7.43
2023-05-19T03:24:02.906Z,7.25
2023-05-19T03:26:29.459Z,6.22
2023-05-19T03:28:56.271Z,6.25
2023-05-19T03:31:22.972Z,6.05
2023-05-19T03:33:49.596Z,5.97
2023-05-19T03:36:16.262Z,5.53
2023-05-19T03:38:42.879Z,5.55
2023-05-19T03:41:09.600Z,5.55
2023-05-19T03:43:36.241Z,5.45
2023-05-19T03:46:02.915Z,5.53
2023-05-19T03:48:29.610Z,5.85
2023-05-19T03:50:56.239Z,6.43
2023-05-19T03:53:22.936Z,6.40
2023-05-19T03:55:50.685Z,5.70
2023-05-19T03:58:17.390Z,6.13
2023-05-19T04:00:44.024Z,5.18
2023-05-19T04:03:10.855Z,5.90
2023-05-19T04:05:37.715Z,4.90
2023-05-19T04:08:04.472Z,5.63
2023-05-19T04:10:31.222Z,5.57
2023-05-19T04:12:58.145Z,5.13
2023-05-19T04:15:24.885Z,4.95
2023-05-19T04:17:51.822Z,5.05
2023-05-19T04:20:18.575Z,4.18
2023-05-19T04:22:45.344Z,5.20
2023-05-19T04:25:12.053Z,4.28
2023-05-19T04:27:41.016Z,4.75
2023-05-19T04:30:08.861Z,4.03
2023-05-19T04:32:37.540Z,4.22
2023-05-19T04:35:04.806Z,3.92
2023-05-19T04:37:31.589Z,4.47
2023-05-19T04:39:58.242Z,3.85
2023-05-19T04:42:26.214Z,4.03
2023-05-19T04:44:53.044Z,3.67
2023-05-19T04:47:21.662Z,3.78
2023-05-19T04:49:48.493Z,3.78
2023-05-19T04:52:16.019Z,4.28
2023-05-19T04:54:44.349Z,4.13
2023-05-19T04:57:13.053Z,4.55
2023-05-19T04:59:40.002Z,3.85
2023-05-19T05:02:06.880Z,4.18
2023-05-19T05:04:33.891Z,4.15
2023-05-19T05:07:00.729Z,4.93
2023-05-19T05:09:27.615Z,5.47
2023-05-19T05:11:54.799Z,4.60
2023-05-19T05:14:21.811Z,4.72
2023-05-19T05:16:49.623Z,4.00
2023-05-19T05:19:16.697Z,4.40
2023-05-19T05:21:43.617Z,3.90
2023-05-19T05:24:17.003Z,4.47
2023-05-19T05:26:44.936Z,3.33
2023-05-19T05:29:15.629Z,4.45
2023-05-19T05:31:42.837Z,3.40
2023-05-19T05:34:12.697Z,3.35
2023-05-19T05:36:42.586Z,3.88
2023-05-19T05:39:10.108Z,3.45
2023-05-19T05:41:37.070Z,3.80
2023-05-19T05:44:05.208Z,3.63
2023-05-19T05:46:32.714Z,3.25
2023-05-19T05:48:59.897Z,3.17
2023-05-19T05:51:28.069Z,3.22
2023-05-19T05:53:55.700Z,2.78
2023-05-19T05:56:22.565Z,2.72
2023-05-19T05:58:49.730Z,2.08
2023-05-19T06:01:17.914Z,2.05
2023-05-19T06:03:45.115Z,3.08
2023-05-19T06:06:13.935Z,2.85
2023-05-19T06:08:40.644Z,3.28
2023-05-19T06:11:08.791Z,3.08
2023-05-19T06:13:36.793Z,3.72
2023-05-19T06:16:03.995Z,2.85
2023-05-19T06:18:30.717Z,2.70
2023-05-19T06:20:57.532Z,2.53
2023-05-19T06:23:25.289Z,2.58
2023-05-19T06:25:52.968Z,2.35
2023-05-19T06:28:19.659Z,2.25
2023-05-19T06:30:46.432Z,3.05
2023-05-19T06:33:13.066Z,2.75
2023-05-19T06:35:42.470Z,2.53
2023-05-19T06:38:09.085Z,3.63
2023-05-19T06:40:37.036Z,2.10
2023-05-19T06:43:04.858Z,3.30
2023-05-19T06:45:31.657Z,2.78
2023-05-19T06:47:58.555Z,3.90
2023-05-19T06:50:26.619Z,2.47
2023-05-19T06:52:53.244Z,3.63
2023-05-19T06:55:20.068Z,2.15
2023-05-19T06:57:46.708Z,2.22
2023-05-19T07:00:16.798Z,3.22
2023-05-19T07:02:45.018Z,3.00
2023-05-19T07:05:12.804Z,2.78
2023-05-19T07:07:39.773Z,1.60
2023-05-19T07:10:07.047Z,2.88
2023-05-19T07:12:33.753Z,2.92
2023-05-19T07:15:00.689Z,4.32
2023-05-19T07:17:27.416Z,3.05
2023-05-19T07:19:54.059Z,2.35
2023-05-19T07:22:21.236Z,2.40
2023-05-19T07:24:47.969Z,2.55
2023-05-19T07:27:14.630Z,3.08
2023-05-19T07:29:41.300Z,2.85
2023-05-19T07:32:07.972Z,2.25
2023-05-19T07:34:34.680Z,1.85
2023-05-19T07:37:02.134Z,2.58
2023-05-19T07:39:29.815Z,2.03
2023-05-19T07:41:57.306Z,1.90
2023-05-19T07:44:23.941Z,1.73
2023-05-19T07:46:50.795Z,2.05
2023-05-19T07:49:17.486Z,1.73
2023-05-19T07:51:45.185Z,1.85
2023-05-19T07:54:12.900Z,2.55
2023-05-19T07:56:39.927Z,1.70
2023-05-19T07:59:07.976Z,2.22
2023-05-19T08:04:01.373Z,2.67
2023-05-19T08:06:30.081Z,1.90
2023-05-19T08:08:56.715Z,1.85
2023-05-19T08:11:24.510Z,2.03
2023-05-19T08:13:51.771Z,2.25
2023-05-19T08:16:18.700Z,2.25
2023-05-19T08:18:45.495Z,2.05
2023-05-19T08:21:12.383Z,2.35
2023-05-19T08:23:39.117Z,1.95
2023-05-19T08:26:05.866Z,1.60
2023-05-19T08:28:32.569Z,2.53
2023-05-19T08:31:02.454Z,2.50
2023-05-19T08:33:29.110Z,3.33
2023-05-19T08:35:58.192Z,2.65
2023-05-19T08:38:26.338Z,2.20
2023-05-19T08:40:53.280Z,3.00
2023-05-19T08:43:21.185Z,2.40
2023-05-19T08:45:48.504Z,2.88
2023-05-19T08:48:17.482Z,3.03
2023-05-19T08:50:57.043Z,3.35
2023-05-19T08:53:34.858Z,3.85
2023-05-19T08:56:11.514Z,3.47
2023-05-19T08:58:43.939Z,3.20
2023-05-19T09:01:14.559Z,2.67
2023-05-19T09:03:43.062Z,2.70
2023-05-19T09:06:13.962Z,2.20
2023-05-19T09:08:42.615Z,2.35
2023-05-19T09:11:11.097Z,2.50
2023-05-19T09:13:39.077Z,2.38
2023-05-19T09:18:34.199Z,3.55
2023-05-19T09:21:03.198Z,3.17
2023-05-19T09:23:36.561Z,2.13
2023-05-19T09:26:08.082Z,3.58
2023-05-19T09:28:36.865Z,2.15
2023-05-19T09:31:06.802Z,2.05
2023-05-19T09:33:36.036Z,2.97
2023-05-19T09:36:05.808Z,3.17
2023-05-19T09:38:33.253Z,2.65
2023-05-19T09:41:01.355Z,3.15
2023-05-19T09:43:30.045Z,3.08
2023-05-19T09:46:03.648Z,2.13
2023-05-19T09:48:30.562Z,2.22
2023-05-19T09:50:58.168Z,2.63
2023-05-19T09:53:25.509Z,2.38
2023-05-19T09:55:57.904Z,3.03
2023-05-19T09:58:25.161Z,2.35
2023-05-19T10:00:54.754Z,3.00
2023-05-19T10:03:24.035Z,3.38
2023-05-19T10:05:53.076Z,3.42
2023-05-19T10:08:20.372Z,3.63
2023-05-19T10:10:47.861Z,2.65
2023-05-19T10:13:16.551Z,2.67
2023-05-19T10:15:57.241Z,2.47
2023-05-19T10:18:25.910Z,3.30
2023-05-19T10:20:53.936Z,2.70
2023-05-19T10:25:49.437Z,2.85
2023-05-19T10:28:21.165Z,2.35
2023-05-19T10:30:53.123Z,2.50
2023-05-19T10:33:29.392Z,2.45
2023-05-19T10:36:25.477Z,2.67
2023-05-19T10:39:17.475Z,2.40
2023-05-19T10:42:11.458Z,2.78
2023-05-19T10:44:53.457Z,2.17
2023-05-19T10:47:26.413Z,2.13
2023-05-19T10:49:56.325Z,1.95
2023-05-19T10:52:29.778Z,2.05
2023-05-19T10:54:58.332Z,2.25
2023-05-19T10:57:28.554Z,2.97
2023-05-19T10:59:57.151Z,1.40
2023-05-19T11:02:43.254Z,1.92
2023-05-19T11:08:02.314Z,2.75
2023-05-19T11:10:29.301Z,2.00
2023-05-19T11:12:58.272Z,2.25
2023-05-19T11:15:28.767Z,1.65
2023-05-19T11:17:55.608Z,1.17
2023-05-19T11:20:28.874Z,2.08
2023-05-19T11:23:17.914Z,1.65
2023-05-19T11:25:49.513Z,1.65
2023-05-19T11:28:19.542Z,2.50
2023-05-19T11:30:52.284Z,2.13
2023-05-19T11:33:20.721Z,1.50
2023-05-19T11:35:49.829Z,2.47
2023-05-19T11:38:20.483Z,3.10
2023-05-19T11:40:49.746Z,2.33
2023-05-19T11:43:16.811Z,1.48
2023-05-19T11:45:44.109Z,1.55
2023-05-19T11:48:16.074Z,1.50
2023-05-19T11:50:44.211Z,3.88
2023-05-19T11:53:16.366Z,1.88
2023-05-19T11:55:47.555Z,2.28
2023-05-19T11:58:14.581Z,2.90
2023-05-19T12:00:43.392Z,2.03
2023-05-19T12:03:11.563Z,2.13
2023-05-19T12:05:44.912Z,1.50
2023-05-19T12:08:12.531Z,1.70
2023-05-19T12:10:40.130Z,1.85
2023-05-19T12:13:09.199Z,2.08
2023-05-19T12:15:36.687Z,2.20
2023-05-19T12:18:04.146Z,2.55
2023-05-19T12:20:36.172Z,2.25
2023-05-19T12:23:03.867Z,1.85
2023-05-19T12:25:32.456Z,1.38
2023-05-19T12:28:00.909Z,2.60
2023-05-19T12:30:29.291Z,2.38
2023-05-19T12:33:00.402Z,2.30
2023-05-19T12:35:33.289Z,2.83
2023-05-19T12:38:04.897Z,1.50
2023-05-19T12:40:32.023Z,2.75
2023-05-19T12:42:59.537Z,2.30
2023-05-19T12:45:28.432Z,3.05
2023-05-19T12:47:56.257Z,2.45
2023-05-19T12:50:30.537Z,3.42
2023-05-19T12:52:59.590Z,2.47
2023-05-19T12:55:26.515Z,3.58
2023-05-19T12:57:56.888Z,2.80
2023-05-19T13:00:32.635Z,2.10
2023-05-19T13:03:00.881Z,3.53
2023-05-19T13:05:29.193Z,2.67
2023-05-19T13:08:10.174Z,2.47
2023-05-19T13:10:38.572Z,2.50
2023-05-19T13:13:08.415Z,2.42
2023-05-19T13:15:38.109Z,2.63
2023-05-19T13:18:06.426Z,2.55
2023-05-19T13:20:33.732Z,1.85
2023-05-19T13:23:01.148Z,2.33
2023-05-19T13:25:28.378Z,2.17
2023-05-19T13:27:55.407Z,2.63
2023-05-19T13:30:22.745Z,1.88
2023-05-19T13:32:49.815Z,2.67
2023-05-19T13:35:16.710Z,1.67
2023-05-19T13:37:43.583Z,2.10
2023-05-19T13:40:11.337Z,2.35
2023-05-19T13:45:05.571Z,1.30
2023-05-19T13:47:32.366Z,1.98
2023-05-19T13:49:59.325Z,1.55
2023-05-19T13:52:27.545Z,1.05
2023-05-19T13:54:56.703Z,1.70
2023-05-19T13:57:26.535Z,2.50
2023-05-19T14:00:02.461Z,1.38
2023-05-19T14:02:30.521Z,1.27
2023-05-19T14:04:57.662Z,1.73
2023-05-19T14:07:25.737Z,1.83
2023-05-19T14:09:53.141Z,2.00
2023-05-19T14:12:23.255Z,1.08
2023-05-19T14:14:52.180Z,1.52
2023-05-19T14:17:19.043Z,1.02
2023-05-19T14:19:45.761Z,0.90
2023-05-19T14:22:13.489Z,1.73
2023-05-19T14:24:41.585Z,1.52
2023-05-19T14:27:08.240Z,1.10
2023-05-19T14:29:35.503Z,1.80
2023-05-19T14:32:03.449Z,1.27
2023-05-19T14:34:30.480Z,1.73
2023-05-19T14:36:57.234Z,1.98
2023-05-19T14:39:23.873Z,1.42
2023-05-19T14:41:52.011Z,1.60
2023-05-19T14:44:18.809Z,1.10
2023-05-19T14:46:45.543Z,1.17
2023-05-19T14:49:12.204Z,1.58
2023-05-19T14:51:38.909Z,1.73
2023-05-19T14:54:05.610Z,2.55
2023-05-19T14:56:32.277Z,1.95
2023-05-19T14:58:58.900Z,0.82
2023-05-19T15:01:25.910Z,1.38
2023-05-19T15:03:52.790Z,1.70
2023-05-19T15:06:19.567Z,2.03
2023-05-19T15:08:46.456Z,1.30
2023-05-19T15:11:13.187Z,0.95
2023-05-19T15:13:40.787Z,0.93
2023-05-19T15:16:17.645Z,0.80
2023-05-19T15:18:45.236Z,0.85
2023-05-19T15:21:12.499Z,1.58
2023-05-19T15:23:39.141Z,1.33
2023-05-19T15:26:06.024Z,1.98
2023-05-19T15:28:33.595Z,1.00
2023-05-19T15:31:00.428Z,1.55
2023-05-19T15:33:27.202Z,1.58
2023-05-19T15:35:54.347Z,1.40
2023-05-19T15:38:21.186Z,1.23
2023-05-19T15:40:48.179Z,0.75
2023-05-19T15:43:14.984Z,1.02
2023-05-19T15:45:41.689Z,0.90
2023-05-19T15:48:08.817Z,1.50
2023-05-19T15:50:36.139Z,1.38
2023-05-19T15:53:03.535Z,1.58
2023-05-19T15:55:30.505Z,1.38
2023-05-19T15:57:57.287Z,1.60
2023-05-19T16:00:23.941Z,1.10
2023-05-19T16:02:50.777Z,1.33
2023-05-19T16:05:17.914Z,0.88
2023-05-19T16:07:45.084Z,1.25
2023-05-19T16:10:11.790Z,1.00
2023-05-19T16:12:38.609Z,1.55
2023-05-19T16:15:05.781Z,1.33
2023-05-19T16:17:32.621Z,1.38
2023-05-19T16:19:59.294Z,1.05
2023-05-19T16:22:26.210Z,1.70
2023-05-19T16:24:53.145Z,0.77
2023-05-19T16:27:19.921Z,0.90
2023-05-19T16:29:46.607Z,0.68
2023-05-19T16:32:13.379Z,0.75
2023-05-19T16:34:40.337Z,1.35
2023-05-19T16:37:07.366Z,2.08
2023-05-19T16:39:37.321Z,0.82
2023-05-19T16:42:04.783Z,1.58
2023-05-19T16:44:31.533Z,1.63
2023-05-19T16:46:58.168Z,0.88
2023-05-19T16:49:24.812Z,0.50
2023-05-19T16:51:53.152Z,1.45
2023-05-19T16:54:21.380Z,0.80
2023-05-19T16:56:50.494Z,1.23
2023-05-19T16:59:17.478Z,0.93
2023-05-19T17:01:44.830Z,1.02
2023-05-19T17:04:11.984Z,0.85
2023-05-19T17:06:39.249Z,0.93
2023-05-19T17:09:06.184Z,1.05
2023-05-19T17:11:32.929Z,1.40
2023-05-19T17:13:59.924Z,0.77
2023-05-19T17:16:27.744Z,0.75
2023-05-19T17:18:54.520Z,1.45
2023-05-19T17:21:21.552Z,0.63
2023-05-19T17:23:49.430Z,0.98
2023-05-19T17:28:43.542Z,0.55
2023-05-19T17:31:12.034Z,1.02
2023-05-19T17:33:39.452Z,0.82
2023-05-19T17:36:07.288Z,1.30
2023-05-19T17:38:34.547Z,0.90
2023-05-19T17:41:02.446Z,2.05
2023-05-19T17:45:56.786Z,1.00
2023-05-19T17:48:25.940Z,3.03
2023-05-19T17:50:52.641Z,1.52
2023-05-19T17:53:19.698Z,0.98
2023-05-19T17:55:51.803Z,0.80
2023-05-19T17:58:19.803Z,0.88
2023-05-19T18:03:13.933Z,1.17
2023-05-19T18:05:43.344Z,1.13
2023-05-19T18:08:14.969Z,1.23
2023-05-19T18:10:42.619Z,1.48
2023-05-19T18:13:15.266Z,1.48
2023-05-19T18:15:41.965Z,1.55
2023-05-19T18:18:10.705Z,0.63
2023-05-19T18:20:44.286Z,0.90
2023-05-19T18:23:11.479Z,0.63
2023-05-19T18:25:39.387Z,1.67
2023-05-19T18:28:06.058Z,1.17
2023-05-19T18:30:33.234Z,0.73
2023-05-19T18:33:03.678Z,0.60
2023-05-19T18:35:30.843Z,0.52
2023-05-19T18:37:57.608Z,1.25
2023-05-19T18:40:24.677Z,1.05
2023-05-19T18:42:52.370Z,0.93
2023-05-19T18:45:19.237Z,0.47
2023-05-19T18:47:46.534Z,0.75
2023-05-19T18:50:14.518Z,0.93
2023-05-19T18:52:41.184Z,1.20
2023-05-19T18:55:14.871Z,0.68
2023-05-19T18:57:41.980Z,1.23
2023-05-19T19:00:09.278Z,0.68
2023-05-19T19:02:36.102Z,0.88
2023-05-19T19:05:04.106Z,0.73
2023-05-19T19:07:31.994Z,0.63
2023-05-19T19:09:58.733Z,1.13
2023-05-19T19:12:27.441Z,0.80
2023-05-19T19:14:54.892Z,0.77
2023-05-19T19:17:22.085Z,1.17
2023-05-19T19:19:49.117Z,0.70
2023-05-19T19:22:16.113Z,1.05
2023-05-19T19:24:43.192Z,0.60
2023-05-19T19:27:10.893Z,0.80
2023-05-19T19:29:37.697Z,1.15
2023-05-19T19:32:04.883Z,0.55
2023-05-19T19:34:31.771Z,0.70
2023-05-19T19:36:58.431Z,0.45
2023-05-19T19:39:26.110Z,0.82
2023-05-19T19:41:55.190Z,0.65
2023-05-19T19:44:23.981Z,0.65
2023-05-19T19:46:51.959Z,1.42
2023-05-19T19:49:20.116Z,0.88
2023-05-19T19:51:46.935Z,0.85
2023-05-19T19:54:13.625Z,0.73
2023-05-19T19:56:40.886Z,0.63
2023-05-19T19:59:07.725Z,0.98
2023-05-19T20:01:34.851Z,1.05
2023-05-19T20:04:01.757Z,0.95
2023-05-19T20:06:28.610Z,0.68
2023-05-19T20:08:55.311Z,1.13
2023-05-19T20:11:23.842Z,1.00
2023-05-19T20:13:50.658Z,0.50
2023-05-19T20:16:17.395Z,1.15
2023-05-19T20:18:44.116Z,0.90
2023-05-19T20:21:10.787Z,0.60
2023-05-19T20:23:39.088Z,0.80
2023-05-19T20:28:36.533Z,0.82
2023-05-19T20:31:03.172Z,0.65
2023-05-19T20:33:29.839Z,1.10
2023-05-19T20:35:56.466Z,0.95
2023-05-19T20:38:23.098Z,0.90
2023-05-19T20:40:49.849Z,1.23
2023-05-19T20:43:16.596Z,1.63
2023-05-19T20:45:44.259Z,0.40
2023-05-19T20:48:11.412Z,0.75
2023-05-19T20:50:39.348Z,0.30
2023-05-19T20:53:07.435Z,0.98
2023-05-19T20:55:37.523Z,0.73
2023-05-19T20:58:04.632Z,0.73
2023-05-19T21:00:31.324Z,0.65
2023-05-19T21:02:58.172Z,0.68
2023-05-19T21:05:25.035Z,1.02
2023-05-19T21:07:51.776Z,0.60
2023-05-19T21:10:18.444Z,0.95
2023-05-19T21:12:45.732Z,0.70
2023-05-19T21:15:12.670Z,0.60
2023-05-19T21:17:39.484Z,1.52
2023-05-19T21:20:06.652Z,0.63
2023-05-19T21:22:35.646Z,0.70
2023-05-19T21:25:02.311Z,0.52
2023-05-19T21:27:29.054Z,1.02
2023-05-19T21:29:55.744Z,0.70
2023-05-19T21:32:22.555Z,0.70
2023-05-19T21:34:49.208Z,0.63
2023-05-19T21:37:17.377Z,1.00
2023-05-19T21:39:44.680Z,1.80
2023-05-19T21:42:11.413Z,1.10
2023-05-19T21:44:38.219Z,0.70
2023-05-19T21:47:04.994Z,0.85
2023-05-19T21:49:31.706Z,0.82
2023-05-19T21:51:58.804Z,1.08
2023-05-19T21:54:25.451Z,1.45
2023-05-19T21:56:52.198Z,0.80
2023-05-19T21:59:19.558Z,0.40
2023-05-19T22:01:46.833Z,0.90
2023-05-19T22:04:16.460Z,0.70
2023-05-19T22:06:43.325Z,0.90
2023-05-19T22:09:10.426Z,0.85
2023-05-19T22:11:37.172Z,0.75
2023-05-19T22:14:03.806Z,0.85
2023-05-19T22:16:31.161Z,0.68
2023-05-19T22:18:57.900Z,0.73
2023-05-19T22:21:24.771Z,0.60
2023-05-19T22:23:52.149Z,1.23
2023-05-19T22:26:18.766Z,0.55
2023-05-19T22:28:45.512Z,1.05
2023-05-19T22:31:12.438Z,0.70
2023-05-19T22:33:39.211Z,0.73
2023-05-19T22:36:06.414Z,1.73
2023-05-19T22:38:33.082Z,0.77
2023-05-19T22:40:59.766Z,1.10
2023-05-19T22:43:26.504Z,1.13
2023-05-19T22:45:53.230Z,1.30
2023-05-19T22:48:19.980Z,0.90
2023-05-19T22:50:46.813Z,1.33
2023-05-19T22:53:13.497Z,0.63
2023-05-19T22:55:40.450Z,0.55
2023-05-19T22:58:07.189Z,0.70
2023-05-19T23:00:33.890Z,1.45
2023-05-19T23:03:00.539Z,0.80
2023-05-19T23:05:27.250Z,0.73
2023-05-19T23:07:54.028Z,1.08
2023-05-19T23:10:20.579Z,0.88
2023-05-19T23:12:47.276Z,0.98
2023-05-19T23:15:13.869Z,0.80
2023-05-19T23:17:40.595Z,0.88
2023-05-19T23:20:07.891Z,1.40
2023-05-19T23:22:34.614Z,0.98
2023-05-19T23:25:05.655Z,1.55
2023-05-19T23:27:32.312Z,2.78
2023-05-19T23:29:59.073Z,2.60
2023-05-19T23:32:25.932Z,1.30
2023-05-19T23:34:52.551Z,0.90
2023-05-19T23:37:19.250Z,1.73
2023-05-19T23:39:46.042Z,1.88
2023-05-19T23:42:13.217Z,1.27
2023-05-19T23:44:40.265Z,1.50
2023-05-19T23:47:07.066Z,1.75
2023-05-19T23:49:33.846Z,0.90
2023-05-19T23:52:00.571Z,0.82
2023-05-19T23:54:27.237Z,1.00
2023-05-19T23:56:55.832Z,0.85
2023-05-19T23:59:22.597Z,1.00
